createdAt,value
2019-02-26T00:03:28.639Z,4.33
2019-02-26T00:07:34.114Z,4.53
2019-02-26T00:11:40.233Z,6.43
2019-02-26T00:15:46.014Z,3.87
2019-02-26T00:19:51.761Z,4.73
2019-02-26T00:23:56.649Z,4.07
2019-02-26T00:28:01.537Z,6.23
2019-02-26T00:32:07.112Z,4.90
2019-02-26T00:36:13.729Z,6.27
2019-02-26T00:40:20.336Z,5.63
2019-02-26T00:44:27.342Z,6.80
2019-02-26T00:48:33.632Z,4.00
2019-02-26T00:52:39.213Z,3.87
2019-02-26T00:56:45.104Z,4.23
2019-02-26T01:00:49.992Z,7.20
2019-02-26T01:04:54.885Z,5.07
2019-02-26T01:09:01.845Z,4.47
2019-02-26T01:13:08.920Z,9.03
2019-02-26T01:17:14.855Z,7.20
2019-02-26T01:21:24.142Z,5.47
2019-02-26T01:25:26.990Z,3.27
2019-02-26T01:29:32.349Z,3.27
2019-02-26T01:33:37.336Z,3.27
2019-02-26T01:37:42.225Z,4.80
2019-02-26T01:41:47.919Z,4.87
2019-02-26T01:45:55.382Z,3.40
2019-02-26T01:50:00.393Z,5.37
2019-02-26T01:54:07.387Z,4.27
2019-02-26T01:58:15.809Z,2.83
2019-02-26T02:02:20.276Z,4.63
2019-02-26T02:06:25.069Z,3.83
2019-02-26T02:10:29.955Z,5.10
2019-02-26T02:14:34.841Z,3.33
2019-02-26T02:18:43.764Z,3.70
2019-02-26T02:22:46.387Z,3.53
2019-02-26T02:26:53.543Z,2.77
2019-02-26T02:30:57.850Z,4.33
2019-02-26T02:35:04.398Z,2.90
2019-02-26T02:39:12.923Z,3.00
2019-02-26T02:43:17.980Z,4.50
2019-02-26T02:47:25.039Z,4.10
2019-02-26T02:51:31.473Z,6.33
2019-02-26T02:55:37.770Z,2.53
2019-02-26T02:59:42.461Z,2.73
2019-02-26T03:03:47.740Z,2.53
2019-02-26T03:07:56.260Z,4.30
2019-02-26T03:12:00.532Z,3.63
2019-02-26T03:16:05.411Z,5.80
2019-02-26T03:20:14.282Z,4.63
2019-02-26T03:24:19.173Z,3.70
2019-02-26T03:28:24.068Z,4.00
2019-02-26T03:32:28.960Z,4.87
2019-02-26T03:36:35.066Z,5.10
2019-02-26T03:40:40.437Z,3.80
2019-02-26T03:44:47.038Z,4.23
2019-02-26T03:48:52.076Z,3.70
2019-02-26T03:52:56.953Z,3.93
2019-02-26T03:57:01.918Z,3.53
2019-02-26T04:01:08.418Z,3.07
2019-02-26T04:05:14.531Z,3.40
2019-02-26T04:09:21.881Z,4.00
2019-02-26T04:13:25.999Z,6.03
2019-02-26T04:17:33.541Z,2.53
2019-02-26T04:22:15.256Z,4.40
2019-02-26T04:26:35.592Z,5.57
2019-02-26T04:30:56.513Z,5.00
2019-02-26T04:35:02.856Z,4.20
2019-02-26T04:39:26.171Z,4.23
2019-02-26T04:43:42.749Z,4.23
2019-02-26T04:47:58.323Z,5.10
2019-02-26T04:52:05.578Z,5.80
2019-02-26T04:56:12.766Z,5.97
2019-02-26T05:00:16.297Z,4.43
2019-02-26T05:04:21.177Z,6.53
2019-02-26T05:08:26.243Z,10.07
2019-02-26T05:12:34.154Z,7.83
2019-02-26T05:16:40.149Z,9.77
2019-02-26T05:20:48.128Z,10.37
2019-02-26T05:24:52.806Z,6.97
2019-02-26T05:28:57.495Z,6.73
2019-02-26T05:33:03.489Z,7.10
2019-02-26T05:37:10.998Z,6.63
2019-02-26T05:41:15.891Z,5.70
2019-02-26T05:45:21.994Z,6.63
2019-02-26T05:49:27.356Z,6.20
2019-02-26T05:53:32.250Z,5.33
2019-02-26T05:57:37.136Z,5.97
2019-02-26T06:01:43.769Z,5.67
2019-02-26T06:05:51.354Z,4.27
2019-02-26T06:09:56.425Z,6.30
2019-02-26T06:14:06.696Z,7.53
2019-02-26T06:18:08.447Z,4.70
2019-02-26T06:22:16.943Z,3.80
2019-02-26T06:26:19.902Z,11.47
2019-02-26T06:30:24.797Z,5.43
2019-02-26T06:34:29.694Z,16.77
2019-02-26T06:38:35.052Z,7.57
2019-02-26T06:42:40.391Z,25.37
2019-02-26T06:46:45.332Z,11.67
2019-02-26T06:50:50.252Z,11.83
2019-02-26T06:54:58.062Z,7.50
2019-02-26T06:59:05.765Z,7.00
2019-02-26T07:03:11.357Z,7.90
2019-02-26T07:07:16.240Z,10.90
2019-02-26T07:11:21.137Z,7.07
2019-02-26T07:15:28.810Z,9.53
2019-02-26T07:19:33.251Z,5.03
2019-02-26T07:23:40.001Z,16.30
2019-02-26T07:27:44.972Z,10.77
2019-02-26T07:31:51.723Z,11.23
2019-02-26T07:35:57.410Z,13.27
2019-02-26T07:40:05.234Z,16.67
2019-02-26T07:44:15.438Z,11.30
2019-02-26T07:48:18.692Z,9.77
2019-02-26T07:52:24.348Z,11.87
2019-02-26T07:56:32.077Z,11.00
2019-02-26T08:00:37.680Z,10.00
2019-02-26T08:04:43.641Z,22.07
2019-02-26T08:08:48.967Z,22.03
2019-02-26T08:12:53.896Z,15.07
2019-02-26T08:17:01.339Z,7.53
2019-02-26T08:21:05.402Z,9.80
2019-02-26T08:25:11.305Z,15.70
2019-02-26T08:29:16.213Z,23.93
2019-02-26T08:33:21.104Z,10.63
2019-02-26T08:37:26.009Z,11.93
2019-02-26T08:41:30.917Z,11.70
2019-02-26T08:45:35.808Z,9.23
2019-02-26T08:49:42.649Z,25.50
2019-02-26T08:53:49.406Z,21.23
2019-02-26T08:57:56.543Z,20.10
2019-02-26T09:02:01.331Z,11.67
2019-02-26T09:06:12.869Z,17.00
2019-02-26T09:10:22.709Z,20.03
2019-02-26T09:14:25.403Z,21.50
2019-02-26T09:18:31.539Z,11.77
2019-02-26T09:22:36.898Z,14.53
2019-02-26T09:26:41.804Z,4.20
2019-02-26T09:30:46.691Z,6.27
2019-02-26T09:34:52.100Z,4.00
2019-02-26T09:38:58.171Z,2.80
2019-02-26T09:43:03.078Z,4.27
2019-02-26T09:47:07.962Z,5.77
2019-02-26T09:51:14.767Z,3.00
2019-02-26T09:55:19.511Z,2.67
2019-02-26T09:59:26.320Z,4.53
2019-02-26T10:03:35.656Z,3.97
2019-02-26T10:07:38.731Z,8.33
2019-02-26T10:11:45.192Z,2.53
2019-02-26T10:15:50.382Z,2.97
2019-02-26T10:19:56.972Z,2.40
2019-02-26T10:24:02.793Z,2.23
2019-02-26T10:28:11.153Z,3.30
2019-02-26T10:32:15.067Z,4.77
2019-02-26T10:36:19.956Z,2.57
2019-02-26T10:40:34.285Z,3.37
2019-02-26T10:44:31.701Z,2.40
2019-02-26T10:48:36.633Z,4.77
2019-02-26T10:52:41.509Z,4.03
2019-02-26T10:56:46.657Z,4.17
2019-02-26T11:00:54.800Z,2.47
2019-02-26T11:04:58.911Z,4.23
2019-02-26T11:09:05.315Z,8.57
2019-02-26T11:13:12.996Z,3.00
2019-02-26T11:17:20.750Z,4.07
2019-02-26T11:21:25.038Z,3.93
2019-02-26T11:25:29.939Z,5.23
2019-02-26T11:29:36.399Z,6.63
2019-02-26T11:33:41.424Z,8.07
2019-02-26T11:37:47.288Z,6.50
2019-02-26T11:41:54.563Z,7.43
2019-02-26T11:46:01.488Z,7.53
2019-02-26T11:50:11.751Z,9.60
2019-02-26T11:54:17.721Z,5.87
2019-02-26T11:58:24.286Z,7.53
2019-02-26T12:02:33.395Z,6.97
2019-02-26T12:06:35.931Z,7.57
2019-02-26T12:10:40.856Z,8.10
2019-02-26T12:14:48.333Z,7.43
2019-02-26T12:18:52.349Z,7.83
2019-02-26T12:22:57.246Z,9.40
2019-02-26T12:27:02.151Z,7.40
2019-02-26T12:31:09.912Z,8.17
2019-02-26T12:35:15.894Z,10.87
2019-02-26T12:39:22.145Z,6.40
2019-02-26T12:43:26.971Z,7.67
2019-02-26T12:47:31.865Z,7.63
2019-02-26T12:51:36.766Z,10.13
2019-02-26T12:55:42.686Z,6.10
2019-02-26T12:59:47.749Z,8.63
2019-02-26T13:03:54.908Z,9.83
2019-02-26T13:07:59.250Z,6.53
2019-02-26T13:12:04.221Z,7.17
2019-02-26T13:16:09.119Z,7.03
2019-02-26T13:20:16.048Z,8.00
2019-02-26T13:24:26.106Z,5.33
2019-02-26T13:28:29.728Z,6.27
2019-02-26T13:32:54.107Z,11.33
2019-02-26T13:36:43.650Z,5.10
2019-02-26T13:40:48.003Z,6.67
2019-02-26T13:44:52.887Z,5.80
2019-02-26T13:48:57.795Z,5.30
2019-02-26T13:53:02.699Z,4.47
2019-02-26T13:57:09.161Z,4.50
2019-02-26T14:01:14.265Z,4.47
2019-02-26T14:05:19.149Z,4.60
2019-02-26T14:09:24.291Z,2.67
2019-02-26T14:13:29.191Z,2.07
2019-02-26T14:17:34.089Z,2.43
2019-02-26T14:21:38.986Z,2.90
2019-02-26T14:25:43.884Z,1.77
2019-02-26T14:29:48.777Z,2.93
2019-02-26T14:33:53.695Z,2.70
2019-02-26T14:37:58.590Z,2.20
2019-02-26T14:42:03.495Z,1.70
2019-02-26T14:46:08.388Z,1.93
2019-02-26T14:50:15.225Z,2.50
2019-02-26T14:54:20.300Z,2.77
2019-02-26T14:58:25.205Z,2.57
2019-02-26T15:02:30.098Z,1.93
2019-02-26T15:06:34.983Z,4.63
2019-02-26T15:10:39.880Z,13.13
2019-02-26T15:14:44.785Z,3.13
2019-02-26T15:18:49.704Z,3.70
2019-02-26T15:22:54.585Z,4.77
2019-02-26T15:26:59.469Z,2.07
2019-02-26T15:31:04.383Z,2.30
2019-02-26T15:35:09.446Z,3.33
2019-02-26T15:39:14.541Z,8.13
2019-02-26T15:43:19.442Z,3.27
2019-02-26T15:47:24.329Z,2.80
2019-02-26T15:51:29.262Z,4.33
2019-02-26T15:55:34.179Z,2.93
2019-02-26T15:59:39.090Z,5.33
2019-02-26T16:03:43.992Z,3.50
2019-02-26T16:07:48.877Z,8.20
2019-02-26T16:11:53.781Z,2.67
2019-02-26T16:15:58.679Z,2.77
2019-02-26T16:20:10.451Z,2.17
2019-02-26T16:24:15.353Z,7.30
2019-02-26T16:28:21.328Z,11.23
2019-02-26T16:32:26.233Z,5.60
2019-02-26T16:36:31.606Z,4.60
2019-02-26T16:40:37.112Z,2.77
2019-02-26T16:44:42.281Z,3.87
2019-02-26T16:48:47.176Z,7.60
2019-02-26T16:52:52.070Z,2.13
2019-02-26T16:56:56.972Z,8.37
2019-02-26T17:01:01.875Z,7.20
2019-02-26T17:05:14.331Z,7.77
2019-02-26T17:09:19.040Z,5.90
2019-02-26T17:13:24.473Z,4.47
2019-02-26T17:17:29.547Z,5.13
2019-02-26T17:21:34.449Z,2.80
2019-02-26T17:25:39.349Z,6.97
2019-02-26T17:29:44.239Z,3.10
2019-02-26T17:33:49.132Z,9.87
2019-02-26T17:37:54.064Z,10.03
2019-02-26T17:41:58.927Z,6.97
2019-02-26T17:46:03.998Z,9.40
2019-02-26T17:50:17.667Z,3.80
2019-02-26T17:54:22.569Z,7.77
2019-02-26T17:58:27.477Z,9.57
2019-02-26T18:02:32.400Z,11.90
2019-02-26T18:06:37.287Z,5.77
2019-02-26T18:10:42.178Z,9.20
2019-02-26T18:14:47.076Z,9.83
2019-02-26T18:18:51.988Z,15.30
2019-02-26T18:22:59.927Z,6.83
2019-02-26T18:27:03.669Z,6.13
2019-02-26T18:31:08.672Z,7.27
2019-02-26T18:35:13.569Z,5.80
2019-02-26T18:39:22.366Z,6.20
2019-02-26T18:43:25.198Z,6.90
2019-02-26T18:47:30.093Z,6.40
2019-02-26T18:51:36.409Z,12.30
2019-02-26T18:55:41.651Z,7.23
2019-02-26T18:59:46.544Z,8.67
2019-02-26T19:03:51.443Z,8.80
2019-02-26T19:07:56.346Z,8.50
2019-02-26T19:12:01.237Z,8.93
2019-02-26T19:16:06.289Z,10.37
2019-02-26T19:20:14.951Z,9.97
2019-02-26T19:24:20.492Z,9.63
2019-02-26T19:28:26.441Z,10.60
2019-02-26T19:32:32.509Z,9.87
2019-02-26T19:36:37.391Z,10.47
2019-02-26T19:40:54.349Z,8.07
2019-02-26T19:44:59.239Z,7.77
2019-02-26T19:49:05.713Z,7.90
2019-02-26T19:53:10.875Z,8.40
2019-02-26T19:57:15.697Z,10.30
2019-02-26T20:01:20.594Z,11.20
2019-02-26T20:05:25.487Z,9.40
2019-02-26T20:09:30.393Z,10.87
2019-02-26T20:13:35.287Z,11.57
2019-02-26T20:17:40.252Z,14.20
2019-02-26T20:21:45.141Z,7.73
2019-02-26T20:25:50.041Z,11.13
2019-02-26T20:29:54.937Z,20.07
2019-02-26T20:33:59.830Z,7.57
2019-02-26T20:38:04.704Z,7.30
2019-02-26T20:42:09.611Z,9.80
2019-02-26T20:46:14.504Z,9.03
2019-02-26T20:50:21.090Z,7.50
2019-02-26T20:54:26.029Z,6.20
2019-02-26T20:58:30.924Z,5.37
2019-02-26T21:02:35.811Z,7.10
2019-02-26T21:06:40.712Z,8.00
2019-02-26T21:10:45.875Z,7.40
2019-02-26T21:14:52.192Z,5.23
2019-02-26T21:18:57.084Z,7.90
2019-02-26T21:23:01.969Z,9.00
2019-02-26T21:27:06.854Z,6.23
2019-02-26T21:31:11.744Z,4.67
2019-02-26T21:35:20.194Z,9.13
2019-02-26T21:39:23.212Z,8.80
2019-02-26T21:43:28.104Z,5.57
2019-02-26T21:47:33.008Z,6.17
2019-02-26T21:51:37.903Z,6.87
2019-02-26T21:55:44.332Z,5.97
2019-02-26T21:59:50.130Z,5.63
2019-02-26T22:03:58.476Z,5.17
2019-02-26T22:08:02.774Z,6.63
2019-02-26T22:12:07.660Z,9.80
2019-02-26T22:16:14.947Z,6.20
2019-02-26T22:20:35.504Z,7.43
2019-02-26T22:24:26.556Z,6.70
2019-02-26T22:28:31.449Z,8.53
2019-02-26T22:32:36.334Z,7.67
2019-02-26T22:36:41.220Z,7.83
2019-02-26T22:40:46.103Z,5.20
2019-02-26T22:44:54.564Z,4.77
2019-02-26T22:48:58.648Z,7.27
2019-02-26T22:53:04.089Z,4.00
2019-02-26T22:57:09.494Z,5.80
2019-02-26T23:01:30.281Z,5.83
2019-02-26T23:05:31.905Z,4.97
2019-02-26T23:09:37.410Z,7.10
2019-02-26T23:13:43.534Z,5.40
2019-02-26T23:17:48.602Z,5.43
2019-02-26T23:21:53.484Z,4.13
2019-02-26T23:25:58.440Z,7.00
2019-02-26T23:30:05.639Z,5.40
2019-02-26T23:34:11.904Z,5.10
2019-02-26T23:38:16.794Z,6.53
2019-02-26T23:42:21.680Z,6.23
2019-02-26T23:46:29.577Z,4.23
2019-02-26T23:50:34.228Z,6.70
2019-02-26T23:54:39.934Z,5.27
2019-02-26T23:58:45.285Z,5.50
